Fort Seneca, Ohio
Current Conditions -  °F | °C
As of 8:53 PM on Wednesday 17 Dec 2014 (Local Time) from KFDY Reporting Station
Overcast Overcast  
Wind Chill: 17°   Ceiling: 2500
Heat Index: 28°   Visibility: 10mi
Dew Point: 22°   Wind: 14mph
Humidity: 78%   Direction: 260°W
Pressure: 30.19"   Gusts: NA
Location:  41.154°N, 83.2212°W
Report Text: KFDY 180153Z AUTO 26012KT 10SM OVC025 M02/M06 A3019 RMK AO2 SLP229 T10221056
Loading
Personal Weather Stations






























Interactive Weather Map New forecast layout! Learn more

10-Day Weather Forecast

Advertisements
Track Severe Weather on mobile